Time;durP1;ratioP1;P1;durP2;ratioP2;P2;SDS_P1;SDS_P2;PMS_P1;PMS_P2;Temp;Humidity;BMP_temperature;BMP_pressure;BME280_temperature;BME280_humidity;BME280_pressure;Samples;Min_cycle;Max_cycle;Signal;HPM_P1;HPM_P2
2022/11/16 00:02:06;;;;;;;24.50;18.37;;;8.20;99.90;;;;;;5006753;28;20888;-77
2022/11/16 00:04:33;;;;;;;22.80;17.20;;;8.10;99.90;;;;;;5002900;28;20308;-77
2022/11/16 00:07:01;;;;;;;23.97;17.37;;;8.10;99.90;;;;;;5028304;28;20227;-78
2022/11/16 00:09:30;;;;;;;26.27;18.20;;;8.10;99.90;;;;;;5015845;28;20238;-78
2022/11/16 00:11:59;;;;;;;23.37;17.80;;;8.10;99.90;;;;;;5022780;28;20232;-78
2022/11/16 00:14:27;;;;;;;25.70;18.53;;;8.10;99.90;;;;;;5025055;28;20235;-78
2022/11/16 00:16:55;;;;;;;26.63;18.73;;;8.10;99.90;;;;;;5022119;28;20253;-78
2022/11/16 00:19:23;;;;;;;27.03;19.30;;;8.10;99.90;;;;;;5024031;28;20635;-78
2022/11/16 00:21:50;;;;;;;24.87;18.23;;;8.00;99.90;;;;;;5024498;28;20229;-78
2022/11/16 00:24:19;;;;;;;26.30;18.90;;;8.00;99.90;;;;;;5023394;28;20560;-77
2022/11/16 00:26:46;;;;;;;27.63;19.30;;;8.00;99.90;;;;;;5019731;28;20795;-78
2022/11/16 00:29:14;;;;;;;27.60;19.47;;;7.80;99.90;;;;;;5021831;28;20226;-77
2022/11/16 00:31:41;;;;;;;26.97;19.77;;;7.90;99.90;;;;;;5022372;28;20233;-78
2022/11/16 00:34:08;;;;;;;27.17;20.03;;;7.90;99.90;;;;;;5021961;28;20227;-79
2022/11/16 00:36:36;;;;;;;27.80;20.13;;;7.80;99.90;;;;;;5026085;28;20231;-78
2022/11/16 00:39:03;;;;;;;28.27;19.50;;;7.80;99.90;;;;;;5020781;28;20309;-77
2022/11/16 00:41:30;;;;;;;29.17;19.27;;;7.80;99.90;;;;;;5020906;28;20813;-78
2022/11/16 00:43:56;;;;;;;25.97;19.00;;;7.70;99.90;;;;;;5023071;28;20242;-78
2022/11/16 00:46:23;;;;;;;28.40;20.37;;;7.70;99.90;;;;;;5021670;28;20249;-77
2022/11/16 00:48:50;;;;;;;30.23;20.47;;;7.70;99.90;;;;;;5020373;28;20223;-77
2022/11/16 00:51:16;;;;;;;29.03;20.20;;;7.70;99.90;;;;;;5022976;28;20247;-77
2022/11/16 00:53:44;;;;;;;27.60;19.73;;;7.60;99.90;;;;;;5019977;28;20711;-77
2022/11/16 00:56:11;;;;;;;29.17;19.17;;;7.60;99.90;;;;;;5014676;28;20231;-77
2022/11/16 00:58:43;;;;;;;28.03;19.83;;;7.60;99.90;;;;;;5018682;28;20768;-77
2022/11/16 01:01:11;;;;;;;27.97;18.53;;;7.60;99.90;;;;;;5022079;28;20236;-76
2022/11/16 01:03:39;;;;;;;28.93;19.10;;;7.60;99.90;;;;;;5033160;28;20210;-76
2022/11/16 01:06:08;;;;;;;27.03;19.17;;;7.60;99.90;;;;;;5019777;28;20724;-76
2022/11/16 01:08:36;;;;;;;27.37;20.50;;;7.60;99.90;;;;;;5020788;28;20227;-76
2022/11/16 01:13:45;;;;;;;31.30;19.93;;;7.60;99.90;;;;;;5017316;28;20275;-76
2022/11/16 01:16:15;;;;;;;28.93;21.00;;;7.60;99.90;;;;;;5018580;28;20248;-77
2022/11/16 01:18:41;;;;;;;27.63;19.87;;;7.50;99.90;;;;;;5021998;28;20214;-77
2022/11/16 01:21:08;;;;;;;32.50;20.67;;;7.50;99.90;;;;;;5019439;28;20229;-77
2022/11/16 01:23:38;;;;;;;29.53;20.23;;;7.50;99.90;;;;;;5018793;28;20283;-77
2022/11/16 01:26:06;;;;;;;28.53;19.83;;;7.50;99.90;;;;;;5014087;28;20217;-77
2022/11/16 01:28:35;;;;;;;28.93;20.60;;;7.50;99.90;;;;;;5020303;28;20570;-77
2022/11/16 01:31:02;;;;;;;32.47;21.37;;;7.50;99.90;;;;;;5019112;28;21050;-77
2022/11/16 01:33:32;;;;;;;30.77;21.17;;;7.50;99.90;;;;;;5001675;28;20824;-77
2022/11/16 01:35:59;;;;;;;30.83;19.53;;;7.50;99.90;;;;;;5010672;28;20277;-76
2022/11/16 01:38:25;;;;;;;30.73;20.20;;;7.40;99.90;;;;;;4996517;28;21162;-77
2022/11/16 01:40:52;;;;;;;30.10;20.30;;;7.40;99.90;;;;;;4992128;28;20230;-77
2022/11/16 01:43:24;;;;;;;31.43;21.13;;;7.40;99.90;;;;;;5001104;28;20680;-77
2022/11/16 01:45:53;;;;;;;29.47;20.10;;;7.40;99.90;;;;;;5011904;28;20243;-77
2022/11/16 01:48:24;;;;;;;31.87;22.27;;;7.40;99.90;;;;;;4999212;28;20226;-77
2022/11/16 01:50:52;;;;;;;29.00;20.50;;;7.40;99.90;;;;;;5001522;28;20240;-77
2022/11/16 01:53:19;;;;;;;34.43;21.67;;;7.40;99.90;;;;;;5000193;28;20230;-77
2022/11/16 01:55:51;;;;;;;32.20;21.27;;;7.30;99.90;;;;;;4998642;28;20230;-76
2022/11/16 01:58:27;;;;;;;30.43;20.70;;;7.30;99.90;;;;;;4997827;28;20229;-77
2022/11/16 02:01:00;;;;;;;33.40;20.67;;;7.30;99.90;;;;;;5005427;28;20238;-77
2022/11/16 02:03:37;;;;;;;33.03;22.00;;;7.30;99.90;;;;;;4998341;28;20762;-77
2022/11/16 02:06:30;;;;;;;32.97;21.40;;;7.30;99.90;;;;;;4996929;28;20250;-77
2022/11/16 02:12:40;;;;;;;35.20;21.77;;;7.30;99.90;;;;;;4999091;28;20598;-77
2022/11/16 02:15:23;;;;;;;33.03;22.00;;;7.20;99.90;;;;;;4988226;28;20235;-76
2022/11/16 02:18:09;;;;;;;33.40;22.97;;;7.20;99.90;;;;;;5015736;28;20823;-76
2022/11/16 02:21:01;;;;;;;35.73;23.47;;;7.20;99.90;;;;;;5019313;28;20244;-77
2022/11/16 02:24:31;;;;;;;38.93;24.47;;;7.20;99.90;;;;;;5006971;28;20222;-76
2022/11/16 02:27:20;;;;;;;39.83;23.77;;;7.20;99.90;;;;;;4881606;29;20828;-77
2022/11/16 02:29:52;;;;;;;39.30;23.70;;;7.10;99.90;;;;;;4940447;28;20242;-77
2022/11/16 02:32:25;;;;;;;36.43;23.00;;;7.10;99.90;;;;;;4975334;28;20232;-77
2022/11/16 02:34:57;;;;;;;40.63;23.17;;;7.10;99.90;;;;;;5011782;28;20936;-76
2022/11/16 02:37:26;;;;;;;40.37;23.27;;;7.10;99.90;;;;;;5010373;28;20225;-77
2022/11/16 02:39:58;;;;;;;42.63;23.63;;;7.10;99.90;;;;;;5018836;28;20255;-77
2022/11/16 02:42:30;;;;;;;41.70;23.90;;;7.10;99.90;;;;;;5020130;28;20234;-77
2022/11/16 02:44:59;;;;;;;45.27;26.20;;;7.10;99.90;;;;;;5017806;28;20651;-77
2022/11/16 02:47:32;;;;;;;43.43;24.17;;;7.10;99.90;;;;;;5034821;28;20217;-77
2022/11/16 02:50:03;;;;;;;46.83;24.93;;;7.10;99.90;;;;;;5008271;28;20300;-76
2022/11/16 02:52:32;;;;;;;43.73;25.60;;;7.10;99.90;;;;;;5015087;28;20287;-77
2022/11/16 02:54:59;;;;;;;44.43;25.47;;;7.10;99.90;;;;;;5016734;28;20228;-77
2022/11/16 02:57:38;;;;;;;42.27;24.27;;;7.10;99.90;;;;;;5024353;28;20252;-78
2022/11/16 03:00:15;;;;;;;45.07;24.87;;;7.10;99.90;;;;;;5021839;28;20240;-78
2022/11/16 03:02:48;;;;;;;46.70;24.67;;;7.10;99.90;;;;;;5025439;28;20300;-78
2022/11/16 03:05:18;;;;;;;44.63;24.97;;;7.10;99.90;;;;;;5025277;28;20250;-78
2022/11/16 03:07:57;;;;;;;46.90;25.47;;;7.10;99.90;;;;;;5021408;28;20335;-76
2022/11/16 03:13:12;;;;;;;44.13;23.47;;;7.10;99.90;;;;;;5018327;28;20221;-77
2022/11/16 03:15:41;;;;;;;43.40;23.90;;;7.10;99.90;;;;;;5024422;28;20248;-77
2022/11/16 03:18:15;;;;;;;43.07;24.70;;;7.00;99.90;;;;;;5020820;28;20235;-77
2022/11/16 03:20:43;;;;;;;45.20;24.43;;;7.10;99.90;;;;;;5024010;28;20256;-77
2022/11/16 03:23:12;;;;;;;38.30;22.33;;;7.00;99.90;;;;;;5019824;28;20244;-77
2022/11/16 03:25:51;;;;;;;44.73;25.00;;;7.10;99.90;;;;;;5023060;28;20306;-77
2022/11/16 03:28:24;;;;;;;41.53;24.33;;;7.10;99.90;;;;;;5023157;28;20224;-77
2022/11/16 03:30:58;;;;;;;39.67;23.07;;;7.10;99.90;;;;;;5017726;28;20238;-77
2022/11/16 03:33:31;;;;;;;40.73;22.87;;;7.10;99.90;;;;;;5016521;28;20226;-77
2022/11/16 03:36:04;;;;;;;39.17;22.57;;;7.10;99.90;;;;;;5022174;28;20305;-77
2022/11/16 03:38:35;;;;;;;40.17;23.37;;;7.10;99.90;;;;;;5016829;28;20771;-77
2022/11/16 03:41:06;;;;;;;40.03;23.10;;;7.10;99.90;;;;;;5021815;28;20217;-77
2022/11/16 03:43:34;;;;;;;40.57;24.03;;;7.00;99.90;;;;;;5037665;28;20245;-77
2022/11/16 03:46:04;;;;;;;39.13;23.03;;;7.00;99.90;;;;;;5020777;28;20304;-77
2022/11/16 03:48:35;;;;;;;37.53;23.00;;;7.00;99.90;;;;;;5021653;28;20252;-77
2022/11/16 03:51:04;;;;;;;38.20;22.57;;;7.00;99.90;;;;;;5031681;28;20270;-77
2022/11/16 03:53:30;;;;;;;37.80;22.20;;;7.00;99.90;;;;;;5009374;28;20630;-77
2022/11/16 03:55:57;;;;;;;39.10;22.67;;;7.00;99.90;;;;;;5017703;28;20232;-77
2022/11/16 03:58:24;;;;;;;38.30;22.13;;;7.00;99.90;;;;;;5020302;28;20235;-77
2022/11/16 04:00:53;;;;;;;38.53;22.40;;;7.00;99.90;;;;;;5020472;28;20231;-77
2022/11/16 04:03:21;;;;;;;37.47;22.97;;;7.00;99.90;;;;;;5020337;28;20314;-76
2022/11/16 04:25:11;;;;;;;33.77;21.27;;;7.00;99.90;;;;;;5001730;28;20278;-77
2022/11/16 04:30:23;;;;;;;37.10;21.40;;;6.90;99.90;;;;;;4999598;28;20328;-77
2022/11/16 04:38:21;;;;;;;36.07;20.63;;;6.90;99.90;;;;;;5010741;28;20317;-77
2022/11/16 04:40:47;;;;;;;34.50;21.13;;;6.90;99.90;;;;;;5021987;28;20244;-76
2022/11/16 04:43:13;;;;;;;33.70;21.13;;;6.90;99.90;;;;;;5017080;28;20952;-76
2022/11/16 04:48:34;;;;;;;36.57;21.30;;;6.80;99.90;;;;;;5016069;28;20225;-78
2022/11/16 04:51:04;;;;;;;33.50;20.93;;;6.80;99.90;;;;;;5021898;28;20234;-80
2022/11/16 04:53:31;;;;;;;36.33;21.93;;;6.80;99.90;;;;;;5020361;28;20220;-79
2022/11/16 04:56:05;;;;;;;33.40;20.27;;;6.80;99.90;;;;;;5020059;28;20636;-80
2022/11/16 04:58:32;;;;;;;36.27;20.10;;;6.80;99.90;;;;;;5016275;28;20223;-80
2022/11/16 05:01:00;;;;;;;30.97;20.37;;;6.80;99.90;;;;;;5017413;28;20228;-82
2022/11/16 05:03:27;;;;;;;31.13;19.30;;;6.80;99.90;;;;;;5014262;28;20307;-78
2022/11/16 05:05:54;;;;;;;35.60;21.37;;;6.80;99.90;;;;;;5018464;28;20289;-79
2022/11/16 05:08:24;;;;;;;34.00;21.33;;;6.80;99.90;;;;;;5019463;28;20679;-78
2022/11/16 05:10:52;;;;;;;32.53;19.90;;;6.80;99.90;;;;;;5020798;28;20247;-79
2022/11/16 05:13:19;;;;;;;35.57;21.07;;;6.80;99.90;;;;;;5019981;28;20297;-78
2022/11/16 05:15:46;;;;;;;36.07;20.20;;;6.80;99.90;;;;;;5017798;28;20888;-78
2022/11/16 05:18:13;;;;;;;32.70;20.90;;;6.80;99.90;;;;;;5029904;28;20595;-79
2022/11/16 05:26:13;;;;;;;34.63;20.93;;;6.80;99.90;;;;;;5010371;28;20293;-79
2022/11/16 05:28:40;;;;;;;32.13;20.07;;;6.80;99.90;;;;;;5019542;28;20229;-79
2022/11/16 05:31:08;;;;;;;44.07;21.30;;;6.80;99.90;;;;;;5019233;28;20321;-78
2022/11/16 05:33:35;;;;;;;43.33;20.60;;;6.80;99.90;;;;;;5015346;28;20231;-78
2022/11/16 05:36:03;;;;;;;44.57;20.60;;;6.80;99.90;;;;;;5016965;28;20304;-78
2022/11/16 05:38:31;;;;;;;36.40;20.43;;;6.80;99.90;;;;;;5019474;28;20244;-76
2022/11/16 05:40:59;;;;;;;35.50;21.13;;;6.80;99.90;;;;;;5014061;28;20231;-80
2022/11/16 05:43:28;;;;;;;37.83;20.70;;;6.80;99.90;;;;;;5012906;28;20614;-81
2022/11/16 05:46:03;;;;;;;44.40;19.07;;;6.70;99.90;;;;;;5022968;28;20215;-82
2022/11/16 05:48:29;;;;;;;37.83;20.80;;;6.70;99.90;;;;;;5018506;28;20361;-82
2022/11/16 05:50:58;;;;;;;32.47;19.67;;;6.70;99.90;;;;;;5018445;28;20243;-80
2022/11/16 05:53:25;;;;;;;36.80;21.10;;;6.70;99.90;;;;;;5008673;28;20234;-80
2022/11/16 05:55:53;;;;;;;37.00;21.27;;;6.70;99.90;;;;;;5018891;28;20796;-81
2022/11/16 05:58:21;;;;;;;35.17;20.47;;;6.60;99.90;;;;;;5015300;28;20259;-80
2022/11/16 06:00:50;;;;;;;35.20;20.97;;;6.70;99.90;;;;;;5018186;28;20228;-82
2022/11/16 06:03:19;;;;;;;32.47;19.90;;;6.60;99.90;;;;;;5007642;28;20233;-79
2022/11/16 06:05:45;;;;;;;35.13;21.47;;;6.60;99.90;;;;;;5014941;28;20333;-81
2022/11/16 06:08:14;;;;;;;38.13;20.87;;;6.70;99.90;;;;;;5013358;28;20329;-80
2022/11/16 06:10:41;;;;;;;32.27;19.47;;;6.70;99.90;;;;;;5015385;28;20227;-81
2022/11/16 06:13:09;;;;;;;33.17;20.03;;;6.70;99.90;;;;;;5016228;28;20267;-80
2022/11/16 06:15:37;;;;;;;33.67;20.13;;;6.70;99.90;;;;;;5018238;28;20363;-79
2022/11/16 06:18:04;;;;;;;33.63;20.13;;;6.60;99.90;;;;;;5015674;28;20271;-80
2022/11/16 06:20:31;;;;;;;29.63;20.17;;;6.70;99.90;;;;;;5015066;28;20239;-82
2022/11/16 06:22:58;;;;;;;33.33;19.40;;;6.70;99.90;;;;;;5017212;28;20327;-82
2022/11/16 06:25:25;;;;;;;31.13;19.40;;;6.70;99.90;;;;;;5020376;28;20274;-83
2022/11/16 06:27:51;;;;;;;31.53;19.67;;;6.60;99.90;;;;;;5021477;28;20596;-81
2022/11/16 06:30:20;;;;;;;29.87;19.13;;;6.70;99.90;;;;;;5018587;28;20255;-80
2022/11/16 06:32:47;;;;;;;30.70;19.70;;;6.70;99.90;;;;;;5025311;28;20231;-81
2022/11/16 06:35:15;;;;;;;30.70;19.40;;;6.70;99.90;;;;;;5022405;28;20308;-81
2022/11/16 06:37:42;;;;;;;30.17;19.13;;;6.70;99.90;;;;;;5020306;28;20647;-82
2022/11/16 06:40:10;;;;;;;29.13;18.53;;;6.70;99.90;;;;;;5019429;28;20269;-79
2022/11/16 06:42:41;;;;;;;31.40;19.20;;;6.70;99.90;;;;;;5022644;28;20225;-80
2022/11/16 06:45:10;;;;;;;28.33;18.07;;;6.70;99.90;;;;;;5018200;28;20232;-82
2022/11/16 06:47:42;;;;;;;32.70;19.13;;;6.70;99.90;;;;;;5021054;28;21039;-82
2022/11/16 06:50:10;;;;;;;30.47;18.00;;;6.60;99.90;;;;;;5025427;28;20279;-81
2022/11/16 06:52:36;;;;;;;29.40;18.53;;;6.60;99.90;;;;;;5025248;28;20227;-82
2022/11/16 06:55:03;;;;;;;30.03;18.77;;;6.60;99.90;;;;;;5021479;28;20266;-83
2022/11/16 06:57:34;;;;;;;28.33;17.50;;;6.60;99.90;;;;;;5013752;28;20227;-81
2022/11/16 07:00:01;;;;;;;30.07;18.40;;;6.60;99.90;;;;;;5024009;28;20615;-82
2022/11/16 07:02:28;;;;;;;29.60;19.67;;;6.60;99.90;;;;;;5013210;28;20636;-80
2022/11/16 07:04:57;;;;;;;29.47;19.27;;;6.60;99.90;;;;;;5023848;28;20277;-79
2022/11/16 07:07:24;;;;;;;28.67;18.93;;;6.70;99.90;;;;;;5025302;28;20244;-80
2022/11/16 07:09:52;;;;;;;30.03;18.33;;;6.70;99.90;;;;;;5024653;28;20231;-79
2022/11/16 07:12:19;;;;;;;27.33;18.67;;;6.70;99.90;;;;;;5026130;28;20323;-80
2022/11/16 07:14:46;;;;;;;28.60;19.73;;;6.70;99.90;;;;;;5023933;28;20226;-80
2022/11/16 07:17:13;;;;;;;30.37;18.67;;;6.70;99.90;;;;;;5020811;28;20232;-82
2022/11/16 07:19:40;;;;;;;30.17;19.57;;;6.70;99.90;;;;;;5024169;28;20229;-81
2022/11/16 07:22:08;;;;;;;31.27;18.60;;;6.70;99.90;;;;;;5017197;28;20693;-80
2022/11/16 07:24:35;;;;;;;28.53;18.47;;;6.70;99.90;;;;;;5023799;28;20226;-82
2022/11/16 07:27:03;;;;;;;31.67;18.77;;;6.70;99.90;;;;;;5025421;28;20286;-81
2022/11/16 07:29:34;;;;;;;28.53;18.93;;;6.70;99.90;;;;;;5018496;28;20235;-80
2022/11/16 07:32:13;;;;;;;31.40;19.03;;;6.80;99.90;;;;;;5019609;28;20228;-82
2022/11/16 07:34:58;;;;;;;32.47;19.13;;;6.70;99.90;;;;;;5017612;28;20375;-83
2022/11/16 07:37:26;;;;;;;29.60;20.00;;;6.80;99.90;;;;;;5018606;28;20730;-82
2022/11/16 07:39:53;;;;;;;30.73;20.07;;;6.80;99.90;;;;;;5020904;28;20670;-81
2022/11/16 07:42:22;;;;;;;30.80;19.57;;;6.80;99.90;;;;;;5024724;28;20220;-79
2022/11/16 07:45:02;;;;;;;29.00;19.50;;;6.80;99.90;;;;;;5020803;28;20859;-78
2022/11/16 07:47:36;;;;;;;30.40;19.43;;;6.80;99.90;;;;;;5010373;28;20244;-80
2022/11/16 07:50:05;;;;;;;30.10;20.00;;;6.80;99.90;;;;;;5018487;28;20752;-79
2022/11/16 07:52:35;;;;;;;30.13;20.20;;;6.80;99.90;;;;;;5018938;28;20222;-85
2022/11/16 07:55:08;;;;;;;32.43;20.50;;;6.80;99.90;;;;;;5019328;28;20223;-81
2022/11/16 07:57:35;;;;;;;32.17;20.67;;;6.80;99.90;;;;;;5018071;28;20271;-82
2022/11/16 08:00:07;;;;;;;30.70;20.37;;;6.80;99.90;;;;;;5024740;28;20265;-80
2022/11/16 08:02:53;;;;;;;32.03;20.23;;;6.80;99.90;;;;;;5022353;28;20228;-81
2022/11/16 08:05:20;;;;;;;30.87;20.07;;;6.80;99.90;;;;;;5022566;28;20285;-81
2022/11/16 08:07:51;;;;;;;31.43;20.83;;;6.80;99.90;;;;;;5022161;28;20286;-81
2022/11/16 08:10:21;;;;;;;31.53;20.10;;;6.80;99.90;;;;;;5013594;28;20223;-80
2022/11/16 08:12:48;;;;;;;30.73;20.07;;;6.90;99.90;;;;;;5024807;28;20240;-82
2022/11/16 08:15:16;;;;;;;32.13;19.77;;;6.90;99.90;;;;;;5022743;28;20327;-80
2022/11/16 08:17:43;;;;;;;29.30;19.67;;;6.90;99.90;;;;;;5029181;28;20231;-79
2022/11/16 08:20:12;;;;;;;33.00;20.63;;;6.90;99.90;;;;;;5022366;28;20228;-81
2022/11/16 08:22:39;;;;;;;32.40;20.77;;;6.90;99.90;;;;;;5024677;28;20290;-81
2022/11/16 08:25:09;;;;;;;31.43;19.47;;;6.90;99.90;;;;;;5021786;28;20879;-80
2022/11/16 08:27:38;;;;;;;31.97;19.70;;;6.90;99.90;;;;;;5024542;28;20227;-79
2022/11/16 08:30:10;;;;;;;31.90;19.50;;;6.80;99.90;;;;;;5023014;28;20226;-82
2022/11/16 08:32:40;;;;;;;29.77;19.83;;;6.80;99.90;;;;;;5022122;28;20293;-83
2022/11/16 08:35:08;;;;;;;30.43;19.20;;;6.80;99.90;;;;;;5022877;28;20319;-80
2022/11/16 08:37:35;;;;;;;32.00;19.73;;;6.80;99.90;;;;;;5023030;28;20228;-80
2022/11/16 08:40:03;;;;;;;32.53;19.90;;;6.80;99.90;;;;;;5022788;28;20637;-83
2022/11/16 08:42:32;;;;;;;31.03;19.87;;;6.80;99.90;;;;;;5016716;28;20641;-82
2022/11/16 08:44:59;;;;;;;31.13;19.53;;;6.80;99.90;;;;;;5022822;28;20218;-82
2022/11/16 08:47:26;;;;;;;28.77;19.93;;;6.80;99.90;;;;;;5026091;28;20234;-79
2022/11/16 08:49:58;;;;;;;31.27;19.83;;;6.80;99.90;;;;;;5023805;28;20238;-85
2022/11/16 08:52:28;;;;;;;30.57;19.80;;;6.80;99.90;;;;;;5022367;28;20306;-79
2022/11/16 08:54:56;;;;;;;30.00;19.97;;;6.80;99.90;;;;;;5022147;28;20771;-80
2022/11/16 08:57:22;;;;;;;34.93;21.23;;;6.80;99.90;;;;;;5022239;28;20228;-81
2022/11/16 08:59:55;;;;;;;30.70;19.57;;;6.80;99.90;;;;;;5024371;28;20220;-81
2022/11/16 09:02:24;;;;;;;31.90;19.67;;;6.80;99.90;;;;;;5024813;28;20232;-82
2022/11/16 09:04:51;;;;;;;32.30;19.10;;;6.80;99.90;;;;;;5022100;28;20232;-81
2022/11/16 09:07:17;;;;;;;34.17;20.60;;;6.80;99.90;;;;;;5017370;28;20302;-81
2022/11/16 09:09:47;;;;;;;34.60;21.60;;;6.80;99.90;;;;;;5024617;28;20233;-81
2022/11/16 09:12:17;;;;;;;28.53;19.80;;;6.90;99.90;;;;;;5025121;28;20256;-82
2022/11/16 09:14:44;;;;;;;34.37;21.00;;;6.90;99.90;;;;;;5022632;28;20220;-79
2022/11/16 09:17:12;;;;;;;32.83;20.73;;;6.90;99.90;;;;;;5023380;28;20225;-83
2022/11/16 09:19:38;;;;;;;39.20;21.93;;;6.90;99.90;;;;;;5024099;28;20316;-82
2022/11/16 09:22:05;;;;;;;35.17;21.80;;;6.90;99.90;;;;;;5024186;28;20214;-81
2022/11/16 09:24:33;;;;;;;37.90;21.63;;;6.90;99.90;;;;;;5015347;28;20229;-86
2022/11/16 09:27:00;;;;;;;36.73;21.97;;;6.90;99.90;;;;;;5023072;28;20668;-83
2022/11/16 09:29:27;;;;;;;37.90;22.70;;;6.90;99.90;;;;;;5021290;28;20232;-82
2022/11/16 09:31:54;;;;;;;37.80;22.77;;;6.90;99.90;;;;;;5022927;28;20220;-81
2022/11/16 09:34:22;;;;;;;38.83;22.20;;;6.90;99.90;;;;;;5022005;28;20228;-83
2022/11/16 09:36:49;;;;;;;37.30;22.67;;;6.80;99.90;;;;;;5022745;28;20272;-82
2022/11/16 09:39:15;;;;;;;37.43;21.90;;;6.80;99.90;;;;;;5024453;28;20228;-84
2022/11/16 09:41:58;;;;;;;35.30;21.87;;;6.80;99.90;;;;;;5020370;28;20220;-81
2022/11/16 09:44:44;;;;;;;36.80;22.40;;;6.80;99.90;;;;;;5023489;28;20716;-81
2022/11/16 09:47:17;;;;;;;36.37;21.93;;;6.70;99.90;;;;;;5018188;28;20710;-83
2022/11/16 09:49:50;;;;;;;39.87;22.70;;;6.70;99.90;;;;;;5021524;28;21032;-79
2022/11/16 09:52:26;;;;;;;42.20;23.00;;;6.70;99.90;;;;;;5019936;28;20224;-81
2022/11/16 09:54:54;;;;;;;40.63;22.27;;;6.70;99.90;;;;;;5021243;28;20227;-83
2022/11/16 09:57:27;;;;;;;40.67;23.60;;;6.70;99.90;;;;;;5020600;28;20315;-80
2022/11/16 09:59:58;;;;;;;41.27;23.10;;;6.70;99.90;;;;;;5024596;28;20806;-79
2022/11/16 10:02:28;;;;;;;39.00;22.13;;;6.70;99.90;;;;;;5019306;28;20248;-83
2022/11/16 10:05:01;;;;;;;39.80;23.30;;;6.70;99.90;;;;;;5023009;28;20219;-81
2022/11/16 10:07:33;;;;;;;41.80;23.30;;;6.70;99.90;;;;;;5021624;28;20834;-81
2022/11/16 10:09:59;;;;;;;40.53;22.07;;;6.70;99.90;;;;;;5016882;28;20224;-81
2022/11/16 10:12:34;;;;;;;39.37;22.37;;;6.70;99.90;;;;;;5022055;28;20323;-83
2022/11/16 10:15:36;;;;;;;40.30;23.50;;;6.70;99.90;;;;;;5019457;28;20725;-81
2022/11/16 10:18:28;;;;;;;37.43;21.77;;;6.60;99.90;;;;;;4999126;28;20429;-80
2022/11/16 10:21:07;;;;;;;40.10;23.07;;;6.70;99.90;;;;;;5007133;28;20232;-80
2022/11/16 10:23:48;;;;;;;42.03;22.43;;;6.60;99.90;;;;;;5008149;28;20231;-81
2022/11/16 10:26:24;;;;;;;42.93;22.87;;;6.60;99.90;;;;;;5013073;28;21686;-82
2022/11/16 10:29:10;;;;;;;45.57;23.57;;;6.60;99.90;;;;;;5010311;28;20226;-80
2022/11/16 10:31:53;;;;;;;45.57;22.87;;;6.60;99.90;;;;;;5003799;28;20232;-81
2022/11/16 10:34:24;;;;;;;44.23;23.17;;;6.60;99.90;;;;;;5003368;28;20306;-83
2022/11/16 10:36:57;;;;;;;41.80;22.57;;;6.60;99.90;;;;;;4997028;28;20229;-80
2022/11/16 10:39:26;;;;;;;43.37;23.73;;;6.60;99.90;;;;;;5001954;28;20229;-80
2022/11/16 10:41:58;;;;;;;48.13;23.47;;;6.50;99.90;;;;;;5002855;28;20225;-79
2022/11/16 10:44:32;;;;;;;43.03;23.37;;;6.50;99.90;;;;;;5001524;28;20235;-79
2022/11/16 10:47:04;;;;;;;46.03;23.97;;;6.50;99.90;;;;;;4991782;28;20688;-77
2022/11/16 10:49:38;;;;;;;44.80;22.80;;;6.50;99.90;;;;;;5007677;28;20229;-77
2022/11/16 10:52:06;;;;;;;49.03;24.00;;;6.60;99.90;;;;;;5006609;28;20717;-77
2022/11/16 10:54:33;;;;;;;46.73;23.20;;;6.60;99.90;;;;;;5005227;28;20255;-78
2022/11/16 10:57:04;;;;;;;48.23;23.63;;;6.60;99.90;;;;;;5014728;28;20251;-77
2022/11/16 10:59:42;;;;;;;48.27;24.03;;;6.60;99.90;;;;;;5036208;28;20278;-78
2022/11/16 11:02:29;;;;;;;49.10;24.10;;;6.60;99.90;;;;;;5026569;28;20923;-78
2022/11/16 11:05:15;;;;;;;43.60;21.53;;;6.60;99.90;;;;;;5011387;28;20221;-77
2022/11/16 11:07:49;;;;;;;46.33;23.47;;;6.70;99.90;;;;;;5002875;28;20605;-78
2022/11/16 11:10:26;;;;;;;48.40;23.37;;;6.70;99.90;;;;;;5005191;28;20227;-77
2022/11/16 11:13:06;;;;;;;47.20;22.87;;;6.70;99.90;;;;;;5000844;28;20226;-78
2022/11/16 11:15:33;;;;;;;45.67;24.23;;;6.70;99.90;;;;;;5004490;28;20300;-77
2022/11/16 11:18:28;;;;;;;48.67;24.53;;;6.70;99.90;;;;;;5006527;28;20272;-77
2022/11/16 11:21:06;;;;;;;46.70;23.87;;;6.70;99.90;;;;;;5000179;28;20228;-77
2022/11/16 11:23:43;;;;;;;45.03;23.30;;;6.70;99.90;;;;;;5008586;28;20234;-77
2022/11/16 11:26:28;;;;;;;49.40;24.53;;;6.70;99.90;;;;;;5014624;28;20232;-77
2022/11/16 11:28:56;;;;;;;45.67;23.87;;;6.70;99.90;;;;;;5013586;28;20224;-78
2022/11/16 11:31:27;;;;;;;45.93;24.80;;;6.80;99.90;;;;;;5018254;28;20235;-78
2022/11/16 11:33:56;;;;;;;46.63;24.33;;;6.80;99.90;;;;;;5011986;28;20239;-77
2022/11/16 11:36:26;;;;;;;47.40;24.10;;;6.80;99.90;;;;;;5013086;28;20227;-78
2022/11/16 11:39:00;;;;;;;48.80;25.40;;;6.80;99.90;;;;;;5012606;28;20250;-77
2022/11/16 11:41:32;;;;;;;45.27;24.00;;;6.90;99.90;;;;;;5007472;28;20315;-77
2022/11/16 11:44:04;;;;;;;49.53;24.70;;;6.90;99.90;;;;;;5001825;28;20259;-78
2022/11/16 11:46:36;;;;;;;48.30;24.03;;;6.90;99.90;;;;;;5025999;28;20228;-78
2022/11/16 11:49:09;;;;;;;49.07;24.80;;;6.90;99.90;;;;;;5030381;28;20229;-77
2022/11/16 11:51:41;;;;;;;44.40;24.57;;;6.90;99.90;;;;;;5037543;28;20222;-77
2022/11/16 11:54:17;;;;;;;55.63;25.77;;;6.90;99.90;;;;;;5041246;28;20225;-78
2022/11/16 11:56:44;;;;;;;50.57;26.20;;;6.90;99.90;;;;;;5034030;28;20234;-78
2022/11/16 11:59:18;;;;;;;47.07;24.70;;;7.00;99.90;;;;;;5026325;28;20320;-77
2022/11/16 12:02:09;;;;;;;52.00;25.97;;;7.00;99.90;;;;;;5030161;28;20224;-77
2022/11/16 12:05:03;;;;;;;49.50;25.83;;;7.00;99.90;;;;;;5032298;28;20229;-77
2022/11/16 12:07:53;;;;;;;48.43;26.53;;;7.00;99.90;;;;;;5026251;28;20248;-77
2022/11/16 12:10:31;;;;;;;47.70;25.67;;;7.10;99.90;;;;;;5029684;28;20517;-77
2022/11/16 12:13:15;;;;;;;53.43;26.60;;;7.10;99.90;;;;;;5022082;28;20743;-77
2022/11/16 12:15:58;;;;;;;52.13;25.90;;;7.10;99.90;;;;;;5037351;28;20313;-77
2022/11/16 12:18:35;;;;;;;51.47;26.73;;;7.10;99.90;;;;;;5031103;28;20233;-77
2022/11/16 12:21:11;;;;;;;49.43;26.57;;;7.20;99.90;;;;;;5024091;28;20221;-77
2022/11/16 12:24:01;;;;;;;51.70;26.07;;;7.20;99.90;;;;;;5016204;28;20244;-78
2022/11/16 12:26:42;;;;;;;51.70;25.93;;;7.30;99.90;;;;;;5041634;28;20234;-78
2022/11/16 12:29:26;;;;;;;51.37;26.33;;;7.30;99.90;;;;;;5014711;28;20881;-78
2022/11/16 12:32:21;;;;;;;53.57;25.23;;;7.30;99.90;;;;;;5019363;28;20881;-78
2022/11/16 12:35:23;;;;;;;53.73;26.73;;;7.30;99.90;;;;;;4968107;28;20348;-78
2022/11/16 12:37:56;;;;;;;49.33;25.30;;;7.30;99.90;;;;;;5005021;28;20253;-78
2022/11/16 12:40:37;;;;;;;52.57;27.53;;;7.40;99.90;;;;;;5009115;28;20891;-78
2022/11/16 12:43:16;;;;;;;49.10;25.37;;;7.30;99.90;;;;;;5005191;28;20315;-77
2022/11/16 12:45:52;;;;;;;46.13;24.77;;;7.30;99.90;;;;;;5009503;28;20230;-78
2022/11/16 12:48:37;;;;;;;48.87;25.13;;;7.40;99.90;;;;;;5000225;28;20381;-78
2022/11/16 12:51:14;;;;;;;46.00;24.70;;;7.40;99.90;;;;;;5030115;28;20548;-77
2022/11/16 12:54:07;;;;;;;53.63;26.73;;;7.40;99.90;;;;;;5026184;28;20231;-77
2022/11/16 12:56:42;;;;;;;50.33;26.13;;;7.40;99.90;;;;;;5012083;28;20840;-77
2022/11/16 12:59:26;;;;;;;54.33;25.40;;;7.40;99.90;;;;;;5006153;28;20232;-78
2022/11/16 13:02:00;;;;;;;48.13;25.27;;;7.40;99.90;;;;;;5007944;28;20892;-77
2022/11/16 13:04:30;;;;;;;51.93;24.77;;;7.40;99.90;;;;;;5013367;28;20226;-77
2022/11/16 13:07:03;;;;;;;46.97;24.87;;;7.40;99.90;;;;;;5012056;28;20220;-77
2022/11/16 13:09:32;;;;;;;49.93;25.37;;;7.40;99.90;;;;;;5010931;28;20311;-78
2022/11/16 13:12:04;;;;;;;43.20;23.70;;;7.40;99.90;;;;;;5009872;28;20220;-77
2022/11/16 13:14:37;;;;;;;51.17;24.90;;;7.40;99.90;;;;;;5010804;28;20723;-78
2022/11/16 13:17:06;;;;;;;48.03;24.17;;;7.40;99.90;;;;;;4997433;28;20306;-77
2022/11/16 13:19:40;;;;;;;42.87;23.43;;;7.40;99.90;;;;;;5016922;28;20233;-77
2022/11/16 13:22:14;;;;;;;48.10;24.70;;;7.40;99.90;;;;;;5007694;28;20218;-77
2022/11/16 13:24:50;;;;;;;50.30;23.33;;;7.40;99.90;;;;;;5006562;28;20230;-77
2022/11/16 13:27:31;;;;;;;47.63;24.10;;;7.40;99.90;;;;;;5001889;28;20229;-78
2022/11/16 13:30:05;;;;;;;41.20;23.20;;;7.40;99.90;;;;;;5006562;28;20241;-77
2022/11/16 13:32:43;;;;;;;44.83;23.33;;;7.30;99.90;;;;;;5023742;28;20704;-77
2022/11/16 13:35:14;;;;;;;43.73;23.77;;;7.40;99.90;;;;;;4998249;28;20229;-77
2022/11/16 13:37:45;;;;;;;44.80;23.67;;;7.40;99.90;;;;;;5026697;28;20296;-78
2022/11/16 13:40:27;;;;;;;43.47;23.20;;;7.30;99.90;;;;;;5005165;28;20235;-78
2022/11/16 13:43:07;;;;;;;43.93;23.97;;;7.30;99.90;;;;;;5034443;28;20592;-77
2022/11/16 13:45:40;;;;;;;42.27;21.63;;;7.20;99.90;;;;;;5024327;28;20290;-78